createdAt,value
2023-02-09T00:02:13.248Z,14.30
2023-02-09T00:04:39.684Z,13.30
2023-02-09T00:07:06.143Z,10.40
2023-02-09T00:09:32.911Z,12.00
2023-02-09T00:12:17.974Z,13.00
2023-02-09T00:14:44.565Z,14.40
2023-02-09T00:17:11.034Z,12.20
2023-02-09T00:19:37.639Z,13.30
2023-02-09T00:22:04.174Z,12.10
2023-02-09T00:24:30.637Z,13.60
2023-02-09T00:26:57.190Z,16.00
2023-02-09T00:29:24.001Z,14.40
2023-02-09T00:31:50.906Z,14.70
2023-02-09T00:34:18.410Z,13.20
2023-02-09T00:36:45.078Z,14.20
2023-02-09T00:39:11.571Z,13.90
2023-02-09T00:41:56.537Z,13.30
2023-02-09T00:44:23.045Z,12.90
2023-02-09T00:46:51.497Z,15.50
2023-02-09T00:49:19.290Z,15.30
2023-02-09T00:51:46.430Z,17.40
2023-02-09T00:54:13.415Z,18.70
2023-02-09T00:56:40.022Z,15.90
2023-02-09T00:59:06.600Z,13.90
2023-02-09T01:01:33.149Z,14.90
2023-02-09T01:03:59.895Z,17.30
2023-02-09T01:06:26.364Z,17.40
2023-02-09T01:08:52.921Z,14.10
2023-02-09T01:11:19.522Z,13.70
2023-02-09T01:13:46.212Z,13.90
2023-02-09T01:16:16.746Z,18.00
2023-02-09T01:18:43.455Z,14.10
2023-02-09T01:21:15.636Z,12.70
2023-02-09T01:23:42.308Z,12.10
2023-02-09T01:26:10.183Z,14.90
2023-02-09T01:28:36.692Z,12.00
2023-02-09T01:31:04.807Z,17.70
2023-02-09T01:33:31.715Z,14.10
2023-02-09T01:35:59.275Z,15.00
2023-02-09T01:38:25.691Z,19.50
2023-02-09T01:40:52.334Z,15.90
2023-02-09T01:43:18.894Z,17.60
2023-02-09T01:45:53.971Z,18.50
2023-02-09T01:48:24.738Z,16.70
2023-02-09T01:50:54.090Z,14.20
2023-02-09T01:53:20.507Z,14.80
2023-02-09T01:56:03.624Z,15.00
2023-02-09T01:58:30.148Z,13.50
2023-02-09T02:00:58.476Z,13.70
2023-02-09T02:03:27.109Z,14.30
2023-02-09T02:05:58.430Z,16.20
2023-02-09T02:08:28.787Z,18.40
2023-02-09T02:10:55.405Z,24.40
2023-02-09T02:13:21.780Z,22.50
2023-02-09T02:16:23.679Z,22.90
2023-02-09T02:19:14.660Z,21.10
2023-02-09T02:21:48.572Z,21.20
2023-02-09T02:24:58.674Z,20.30
2023-02-09T02:27:32.272Z,15.40
2023-02-09T02:30:24.690Z,18.70
2023-02-09T02:32:58.779Z,17.80
2023-02-09T02:35:35.254Z,20.20
2023-02-09T02:38:25.953Z,20.30
2023-02-09T02:41:09.870Z,19.20
2023-02-09T02:43:47.231Z,20.60
2023-02-09T02:46:26.141Z,17.70
2023-02-09T02:49:04.912Z,17.50
2023-02-09T02:51:42.894Z,20.20
2023-02-09T02:54:15.395Z,20.40
2023-02-09T02:56:45.220Z,20.50
2023-02-09T02:59:15.328Z,20.40
2023-02-09T03:02:06.386Z,17.90
2023-02-09T03:04:32.932Z,17.70
2023-02-09T03:06:59.563Z,15.80
2023-02-09T03:09:26.059Z,14.20
2023-02-09T03:11:55.562Z,15.40
2023-02-09T03:14:41.918Z,15.40
2023-02-09T03:17:17.982Z,14.60
2023-02-09T03:19:54.685Z,14.00
2023-02-09T03:22:34.373Z,17.80
2023-02-09T03:25:07.579Z,19.10
2023-02-09T03:27:37.272Z,21.50
2023-02-09T03:30:05.060Z,21.20
2023-02-09T03:32:31.844Z,21.10
2023-02-09T03:34:58.512Z,23.50
2023-02-09T03:37:25.068Z,22.20
2023-02-09T03:39:51.567Z,20.50
2023-02-09T03:42:18.508Z,21.70
2023-02-09T03:44:45.099Z,22.70
2023-02-09T03:47:11.816Z,17.90
2023-02-09T03:49:39.688Z,23.10
2023-02-09T03:52:11.668Z,14.10
2023-02-09T03:54:38.653Z,14.30
2023-02-09T03:57:05.111Z,20.50
2023-02-09T03:59:34.724Z,22.30
2023-02-09T04:02:01.501Z,17.00
2023-02-09T04:04:28.204Z,14.00
2023-02-09T04:06:55.551Z,14.10
2023-02-09T04:09:22.459Z,22.00
2023-02-09T04:11:48.889Z,20.40
2023-02-09T04:14:15.569Z,17.50
2023-02-09T04:16:42.107Z,16.50
2023-02-09T04:19:09.028Z,20.90
2023-02-09T04:21:36.696Z,13.50
2023-02-09T04:24:03.536Z,14.20
2023-02-09T04:26:30.210Z,13.10
2023-02-09T04:28:56.558Z,15.50
2023-02-09T04:31:23.084Z,17.40
2023-02-09T04:33:49.714Z,17.50
2023-02-09T04:36:16.210Z,22.30
2023-02-09T04:38:42.560Z,17.90
2023-02-09T04:41:09.167Z,20.50
2023-02-09T04:43:35.900Z,19.40
2023-02-09T04:46:02.837Z,18.60
2023-02-09T04:48:29.679Z,17.70
2023-02-09T04:50:56.171Z,14.20
2023-02-09T04:53:22.806Z,12.20
2023-02-09T04:55:50.191Z,14.60
2023-02-09T04:58:37.564Z,17.20
2023-02-09T05:01:04.410Z,17.20
2023-02-09T05:03:31.139Z,19.20
2023-02-09T05:06:00.792Z,14.00
2023-02-09T05:08:27.491Z,14.40
2023-02-09T05:10:54.294Z,16.60
2023-02-09T05:13:21.997Z,14.60
2023-02-09T05:15:48.547Z,17.60
2023-02-09T05:18:15.199Z,14.40
2023-02-09T05:20:42.536Z,14.60
2023-02-09T05:23:09.274Z,14.20
2023-02-09T05:25:35.743Z,13.60
2023-02-09T05:28:02.587Z,19.10
2023-02-09T05:30:30.217Z,18.60
2023-02-09T05:32:57.495Z,15.50
2023-02-09T05:35:24.098Z,18.90
2023-02-09T05:37:50.538Z,15.20
2023-02-09T05:40:17.228Z,17.50
2023-02-09T05:42:43.806Z,15.90
2023-02-09T05:45:10.505Z,17.40
2023-02-09T05:47:36.952Z,15.40
2023-02-09T05:50:04.029Z,16.80
2023-02-09T05:52:30.561Z,19.10
2023-02-09T05:54:57.022Z,18.00
2023-02-09T05:57:23.559Z,17.20
2023-02-09T05:59:50.113Z,16.50
2023-02-09T06:02:21.539Z,23.30
2023-02-09T06:04:49.430Z,18.60
2023-02-09T06:07:18.595Z,26.00
2023-02-09T06:09:51.388Z,20.40
2023-02-09T06:12:17.872Z,19.10
2023-02-09T06:14:50.548Z,16.10
2023-02-09T06:17:17.321Z,18.80
2023-02-09T06:19:44.100Z,21.10
2023-02-09T06:22:13.330Z,18.10
2023-02-09T06:24:41.505Z,20.00
2023-02-09T06:27:08.356Z,17.60
2023-02-09T06:29:35.160Z,18.40
2023-02-09T06:32:01.729Z,17.40
2023-02-09T06:34:29.843Z,15.00
2023-02-09T06:36:56.333Z,15.70
2023-02-09T06:39:25.723Z,17.60
2023-02-09T06:41:52.346Z,20.50
2023-02-09T06:44:22.209Z,18.70
2023-02-09T06:46:54.565Z,16.70
2023-02-09T06:49:23.283Z,20.60
2023-02-09T06:51:50.244Z,21.20
2023-02-09T06:54:19.315Z,20.40
2023-02-09T06:56:46.125Z,18.60
2023-02-09T06:59:12.744Z,22.10
2023-02-09T07:01:41.218Z,16.30
2023-02-09T07:04:07.860Z,21.60
2023-02-09T07:08:39.118Z,21.20
2023-02-09T07:11:12.992Z,21.00
2023-02-09T07:13:39.575Z,18.30
2023-02-09T07:16:10.130Z,16.40
2023-02-09T07:18:36.921Z,21.60
2023-02-09T07:21:09.220Z,21.10
2023-02-09T07:23:36.641Z,20.90
2023-02-09T07:26:09.449Z,22.20
2023-02-09T07:28:36.286Z,23.60
2023-02-09T07:31:05.740Z,22.80
2023-02-09T07:33:32.532Z,19.20
2023-02-09T07:35:59.158Z,22.90
2023-02-09T07:38:26.194Z,26.80
2023-02-09T07:40:52.684Z,20.80
2023-02-09T07:43:19.460Z,22.10
2023-02-09T07:45:46.501Z,20.50
2023-02-09T07:48:13.463Z,20.80
2023-02-09T07:50:40.428Z,25.40
2023-02-09T07:53:06.976Z,24.80
2023-02-09T07:55:33.353Z,23.90
2023-02-09T07:58:00.348Z,22.10
2023-02-09T08:00:26.913Z,24.80
2023-02-09T08:02:53.542Z,18.40
2023-02-09T08:05:31.334Z,22.90
2023-02-09T08:07:58.025Z,27.30
2023-02-09T08:10:25.592Z,20.50
2023-02-09T08:12:59.838Z,20.20
2023-02-09T08:15:42.794Z,22.60
2023-02-09T08:18:20.212Z,19.80
2023-02-09T08:20:46.948Z,21.70
2023-02-09T08:23:30.600Z,18.70
2023-02-09T08:25:57.499Z,20.40
2023-02-09T08:28:38.236Z,23.00
2023-02-09T08:31:06.415Z,24.00
2023-02-09T08:33:33.007Z,25.40
2023-02-09T08:35:59.682Z,20.80
2023-02-09T08:38:26.380Z,20.50
2023-02-09T08:40:52.813Z,24.30
2023-02-09T08:43:19.455Z,23.30
2023-02-09T08:45:46.421Z,18.80
2023-02-09T08:48:13.242Z,23.70
2023-02-09T08:50:39.872Z,22.70
2023-02-09T08:53:06.481Z,22.40
2023-02-09T08:55:34.069Z,21.50
2023-02-09T08:58:00.672Z,21.30
2023-02-09T09:00:27.256Z,18.50
2023-02-09T09:02:53.885Z,18.20
2023-02-09T09:05:20.655Z,23.10
2023-02-09T09:07:47.627Z,21.90
2023-02-09T09:10:14.198Z,19.40
2023-02-09T09:12:40.658Z,21.30
2023-02-09T09:15:08.268Z,17.90
2023-02-09T09:17:34.994Z,21.40
2023-02-09T09:20:01.780Z,20.90
2023-02-09T09:22:28.480Z,19.90
2023-02-09T09:24:55.225Z,22.00
2023-02-09T09:27:21.784Z,16.50
2023-02-09T09:29:48.999Z,22.00
2023-02-09T09:32:15.622Z,20.90
2023-02-09T09:34:42.472Z,21.70
2023-02-09T09:37:09.256Z,19.40
2023-02-09T09:39:35.984Z,21.40
2023-02-09T09:42:05.525Z,15.60
2023-02-09T09:44:42.577Z,18.90
2023-02-09T09:47:16.383Z,21.20
2023-02-09T09:49:43.080Z,19.40
2023-02-09T09:52:31.482Z,17.90
2023-02-09T09:54:57.986Z,18.70
2023-02-09T09:57:28.300Z,18.40
2023-02-09T09:59:55.532Z,18.80
2023-02-09T10:02:32.437Z,17.10
2023-02-09T10:05:17.646Z,18.00
2023-02-09T10:08:16.013Z,17.40
2023-02-09T10:10:55.874Z,18.90
2023-02-09T10:13:37.057Z,17.40
2023-02-09T10:16:04.333Z,18.20
2023-02-09T10:18:33.813Z,15.10
2023-02-09T10:21:06.889Z,17.30
2023-02-09T10:24:11.933Z,15.40
2023-02-09T10:26:40.604Z,15.50
2023-02-09T10:29:23.428Z,15.00
2023-02-09T10:32:26.380Z,15.70
2023-02-09T10:34:56.421Z,13.80
2023-02-09T10:37:32.776Z,14.70
2023-02-09T10:40:12.252Z,13.20
2023-02-09T10:42:42.722Z,13.60
2023-02-09T10:45:24.373Z,14.80
2023-02-09T10:48:21.592Z,15.00
2023-02-09T10:50:59.369Z,12.50
2023-02-09T10:53:37.401Z,14.10
2023-02-09T10:56:18.691Z,12.70
2023-02-09T10:59:03.985Z,14.30
2023-02-09T11:01:41.348Z,12.70
2023-02-09T11:04:20.854Z,13.30
2023-02-09T11:06:48.426Z,15.80
2023-02-09T11:09:20.695Z,14.90
2023-02-09T11:11:47.340Z,14.90
2023-02-09T11:14:16.985Z,13.80
2023-02-09T11:16:50.047Z,13.90
2023-02-09T11:19:21.852Z,12.90
2023-02-09T11:22:13.148Z,13.20
2023-02-09T11:24:54.856Z,12.90
2023-02-09T11:27:36.247Z,14.80
2023-02-09T11:30:57.689Z,13.10
2023-02-09T11:33:48.548Z,14.90
2023-02-09T11:36:48.331Z,14.70
2023-02-09T11:39:53.722Z,14.80
2023-02-09T11:42:45.209Z,12.30
2023-02-09T11:45:26.675Z,13.60
2023-02-09T11:48:32.220Z,15.90
2023-02-09T11:51:09.396Z,15.20
2023-02-09T11:54:12.808Z,12.70
2023-02-09T11:56:51.758Z,13.50
2023-02-09T11:59:40.916Z,13.50
2023-02-09T12:02:13.524Z,12.30
2023-02-09T12:05:00.299Z,12.70
2023-02-09T12:07:51.652Z,14.90
2023-02-09T12:10:29.710Z,12.70
2023-02-09T12:13:08.782Z,13.90
2023-02-09T12:15:45.181Z,11.40
2023-02-09T12:18:21.203Z,12.60
2023-02-09T12:20:59.447Z,13.60
2023-02-09T12:23:44.778Z,16.10
2023-02-09T12:26:12.543Z,14.90
2023-02-09T12:28:47.178Z,14.20
2023-02-09T12:31:24.665Z,12.10
2023-02-09T12:33:57.493Z,13.60
2023-02-09T12:36:32.229Z,13.50
2023-02-09T12:39:15.590Z,12.90
2023-02-09T12:41:42.113Z,12.10
2023-02-09T12:44:08.689Z,12.80
2023-02-09T12:46:44.895Z,12.50
2023-02-09T12:49:24.831Z,9.80
2023-02-09T12:51:51.973Z,10.90
2023-02-09T12:54:30.725Z,10.00
2023-02-09T12:57:15.749Z,10.70
2023-02-09T13:00:03.036Z,9.90
2023-02-09T13:02:49.080Z,9.70
2023-02-09T13:05:33.100Z,11.90
2023-02-09T13:08:10.400Z,12.10
2023-02-09T13:10:57.324Z,13.30
2023-02-09T13:13:51.684Z,13.40
2023-02-09T13:16:24.435Z,14.50
2023-02-09T13:19:00.857Z,14.30
2023-02-09T13:21:59.167Z,16.30
2023-02-09T13:24:47.853Z,14.60
2023-02-09T13:27:22.718Z,13.10
2023-02-09T13:29:51.457Z,11.10
2023-02-09T13:33:03.225Z,14.20
2023-02-09T13:35:59.307Z,10.10
2023-02-09T13:38:29.201Z,12.60
2023-02-09T13:40:55.790Z,11.60
2023-02-09T13:43:37.702Z,10.40
2023-02-09T13:46:04.606Z,11.00
2023-02-09T13:48:37.057Z,10.60
2023-02-09T13:51:15.908Z,10.10
2023-02-09T13:53:55.564Z,10.00
2023-02-09T13:56:22.192Z,9.10
2023-02-09T13:58:48.790Z,9.50
2023-02-09T14:01:17.648Z,9.30
2023-02-09T14:03:57.330Z,10.00
2023-02-09T14:06:36.713Z,10.20
2023-02-09T14:09:05.637Z,9.40
2023-02-09T14:11:43.645Z,9.90
2023-02-09T14:14:21.645Z,9.90
2023-02-09T14:16:53.876Z,10.20
2023-02-09T14:19:30.046Z,9.10
2023-02-09T14:21:56.572Z,9.60
2023-02-09T14:24:27.739Z,8.80
2023-02-09T14:27:17.245Z,9.00
2023-02-09T14:29:47.441Z,8.90
2023-02-09T14:32:35.971Z,9.70
2023-02-09T14:35:30.696Z,8.80
2023-02-09T14:38:01.510Z,8.40
2023-02-09T14:40:29.107Z,8.90
2023-02-09T14:42:56.719Z,9.30
2023-02-09T14:45:44.696Z,9.00
2023-02-09T14:48:23.499Z,9.40
2023-02-09T14:50:56.800Z,13.40
2023-02-09T14:53:25.767Z,13.30
2023-02-09T14:55:56.112Z,12.10
2023-02-09T14:58:25.659Z,9.90
2023-02-09T15:00:54.481Z,13.70
2023-02-09T15:03:21.406Z,15.80
2023-02-09T15:05:48.695Z,11.70
2023-02-09T15:08:19.337Z,9.70
2023-02-09T15:10:48.629Z,10.20
2023-02-09T15:13:15.687Z,8.50
2023-02-09T15:15:43.568Z,8.60
2023-02-09T15:18:18.597Z,7.20
2023-02-09T15:20:45.648Z,8.10
2023-02-09T15:23:12.225Z,8.50
2023-02-09T15:25:39.550Z,8.60
2023-02-09T15:28:30.695Z,8.60
2023-02-09T15:30:58.236Z,10.10
2023-02-09T15:33:26.048Z,9.80
2023-02-09T15:35:53.269Z,9.60
2023-02-09T15:38:20.219Z,11.70
2023-02-09T15:41:07.322Z,17.80
2023-02-09T15:43:53.620Z,16.50
2023-02-09T15:46:39.484Z,16.80
2023-02-09T15:49:06.871Z,13.60
2023-02-09T15:51:36.622Z,12.60
2023-02-09T15:54:11.426Z,12.00
2023-02-09T15:56:38.134Z,13.10
2023-02-09T15:59:05.087Z,14.40
2023-02-09T16:01:35.071Z,15.00
2023-02-09T16:04:13.545Z,15.60
2023-02-09T16:06:49.350Z,11.70
2023-02-09T16:09:18.931Z,12.40
2023-02-09T16:11:47.566Z,13.30
2023-02-09T16:14:22.456Z,10.90
2023-02-09T16:16:49.779Z,12.50
2023-02-09T16:19:16.576Z,11.90
2023-02-09T16:21:46.834Z,11.90
2023-02-09T16:24:32.235Z,12.70
2023-02-09T16:27:00.722Z,13.00
2023-02-09T16:29:27.336Z,15.70
2023-02-09T16:31:54.066Z,13.60
2023-02-09T16:34:20.697Z,13.50
2023-02-09T16:36:48.655Z,16.00
2023-02-09T16:39:17.768Z,19.40
2023-02-09T16:41:52.840Z,17.80
2023-02-09T16:44:22.827Z,13.50
2023-02-09T16:46:53.026Z,15.10
2023-02-09T16:49:43.512Z,16.10
2023-02-09T16:52:16.838Z,15.60
2023-02-09T16:54:48.803Z,12.60
2023-02-09T16:57:17.754Z,13.60
2023-02-09T16:59:45.003Z,11.40
2023-02-09T17:02:34.884Z,13.60
2023-02-09T17:05:12.699Z,14.20
2023-02-09T17:07:53.320Z,11.70
2023-02-09T17:10:23.719Z,11.20
2023-02-09T17:12:52.587Z,11.40
2023-02-09T17:15:30.015Z,10.80
2023-02-09T17:18:04.325Z,11.40
2023-02-09T17:20:37.661Z,12.40
2023-02-09T17:23:04.416Z,12.10
2023-02-09T17:25:31.137Z,18.30
2023-02-09T17:27:57.932Z,14.50
2023-02-09T17:30:24.524Z,14.00
2023-02-09T17:32:59.033Z,13.40
2023-02-09T17:35:47.921Z,11.40
2023-02-09T17:38:30.734Z,11.50
2023-02-09T17:40:59.139Z,10.40
2023-02-09T17:43:25.891Z,9.90
2023-02-09T17:45:52.458Z,10.30
2023-02-09T17:48:22.749Z,11.00
2023-02-09T17:50:52.126Z,10.80
2023-02-09T17:53:24.282Z,10.90
2023-02-09T17:55:51.512Z,9.40
2023-02-09T17:58:18.579Z,11.30
2023-02-09T18:00:45.910Z,9.80
2023-02-09T18:03:16.168Z,8.90
2023-02-09T18:05:42.884Z,9.90
2023-02-09T18:08:09.808Z,9.70
2023-02-09T18:10:36.699Z,9.90
2023-02-09T18:13:03.250Z,9.70
2023-02-09T18:15:34.078Z,9.60
2023-02-09T18:18:00.874Z,9.70
2023-02-09T18:20:30.288Z,8.50
2023-02-09T18:22:57.006Z,8.80
2023-02-09T18:25:27.649Z,9.30
2023-02-09T18:27:54.566Z,7.50
2023-02-09T18:30:28.865Z,8.00
2023-02-09T18:32:55.662Z,14.00
2023-02-09T18:35:25.612Z,23.70
2023-02-09T18:37:52.384Z,14.30
2023-02-09T18:40:19.367Z,11.40
2023-02-09T18:42:46.126Z,11.40
2023-02-09T18:45:17.638Z,13.10
2023-02-09T18:47:44.452Z,10.70
2023-02-09T18:50:17.664Z,12.20
2023-02-09T18:52:53.426Z,13.20
2023-02-09T18:55:20.971Z,12.80
2023-02-09T18:57:47.800Z,13.70
2023-02-09T19:00:15.828Z,11.30
2023-02-09T19:02:43.867Z,10.10
2023-02-09T19:05:11.419Z,10.90
2023-02-09T19:07:40.264Z,9.90
2023-02-09T19:10:07.982Z,7.50
2023-02-09T19:12:34.825Z,7.10
2023-02-09T19:15:02.456Z,6.80
2023-02-09T19:17:32.391Z,8.00
2023-02-09T19:20:00.137Z,6.00
2023-02-09T19:22:26.893Z,7.50
2023-02-09T19:24:56.769Z,7.00
2023-02-09T19:27:25.516Z,7.90
2023-02-09T19:29:53.749Z,6.60
2023-02-09T19:35:05.758Z,7.90
2023-02-09T19:37:32.576Z,6.60
2023-02-09T19:40:10.218Z,7.70
2023-02-09T19:42:36.955Z,6.80
2023-02-09T19:45:03.880Z,7.60
2023-02-09T19:47:30.443Z,7.60
2023-02-09T19:49:57.691Z,8.50
2023-02-09T19:52:26.027Z,7.90
2023-02-09T19:54:52.694Z,9.30
2023-02-09T19:57:20.303Z,7.40
2023-02-09T19:59:46.844Z,7.40
2023-02-09T20:02:16.675Z,8.30
2023-02-09T20:04:45.174Z,8.00
2023-02-09T20:07:12.715Z,8.90
2023-02-09T20:09:39.182Z,7.80
2023-02-09T20:12:05.844Z,8.10
2023-02-09T20:14:33.562Z,7.50
2023-02-09T20:17:00.501Z,7.70
2023-02-09T20:19:27.248Z,8.30
2023-02-09T20:21:53.827Z,6.30
2023-02-09T20:24:20.418Z,7.10
2023-02-09T20:26:47.523Z,7.80
2023-02-09T20:29:16.141Z,8.00
2023-02-09T20:31:43.493Z,6.80
2023-02-09T20:34:12.328Z,6.70
2023-02-09T20:36:40.620Z,7.00
2023-02-09T20:39:09.499Z,6.40
2023-02-09T20:41:36.137Z,7.00
2023-02-09T20:44:21.527Z,8.00
2023-02-09T20:46:57.394Z,6.10
2023-02-09T20:49:30.428Z,7.70
2023-02-09T20:51:57.810Z,6.70
2023-02-09T20:54:24.594Z,6.50
2023-02-09T20:56:51.241Z,6.90
2023-02-09T20:59:17.976Z,7.60
2023-02-09T21:01:45.432Z,7.70
2023-02-09T21:04:11.882Z,8.10
2023-02-09T21:06:38.399Z,7.60
2023-02-09T21:09:05.906Z,7.20
2023-02-09T21:11:32.533Z,7.50
2023-02-09T21:14:00.721Z,7.90
2023-02-09T21:16:27.734Z,7.10
2023-02-09T21:18:54.499Z,7.20
2023-02-09T21:21:21.741Z,8.00
2023-02-09T21:23:48.610Z,8.10
2023-02-09T21:26:17.296Z,7.20
2023-02-09T21:28:44.694Z,8.90
2023-02-09T21:31:18.630Z,8.00
2023-02-09T21:33:45.064Z,7.60
2023-02-09T21:36:11.674Z,7.50
2023-02-09T21:38:40.886Z,6.00
2023-02-09T21:41:31.963Z,7.60
2023-02-09T21:43:59.009Z,8.20
2023-02-09T21:46:25.793Z,7.20
2023-02-09T21:48:52.669Z,7.90
2023-02-09T21:51:19.781Z,7.40
2023-02-09T21:53:46.716Z,8.00
2023-02-09T21:56:13.297Z,7.40
2023-02-09T21:58:40.879Z,8.20
2023-02-09T22:01:10.413Z,8.20
2023-02-09T22:03:38.454Z,7.10
2023-02-09T22:06:05.632Z,7.70
2023-02-09T22:08:32.234Z,7.10
2023-02-09T22:11:01.067Z,8.30
2023-02-09T22:13:28.714Z,8.20
2023-02-09T22:15:55.545Z,8.30
2023-02-09T22:18:22.371Z,8.70
2023-02-09T22:20:50.441Z,8.50
2023-02-09T22:23:18.440Z,8.80
2023-02-09T22:25:45.146Z,9.50
2023-02-09T22:28:13.122Z,8.60
2023-02-09T22:30:39.918Z,7.70
2023-02-09T22:33:06.585Z,8.10
2023-02-09T22:35:33.027Z,8.00
2023-02-09T22:38:01.194Z,6.90
2023-02-09T22:40:28.023Z,7.70
2023-02-09T22:42:54.622Z,6.40
2023-02-09T22:45:21.107Z,8.60
2023-02-09T22:47:47.785Z,8.20
2023-02-09T22:50:14.247Z,7.50
2023-02-09T22:52:40.817Z,9.20
2023-02-09T22:55:07.273Z,8.30
2023-02-09T22:57:33.689Z,8.00
2023-02-09T23:00:00.347Z,8.20
2023-02-09T23:02:26.822Z,8.70
2023-02-09T23:04:54.048Z,8.00
2023-02-09T23:07:20.855Z,7.30
2023-02-09T23:09:47.343Z,7.60
2023-02-09T23:12:13.779Z,8.50
2023-02-09T23:14:40.337Z,7.70
2023-02-09T23:17:06.838Z,8.10
2023-02-09T23:19:33.330Z,9.30
2023-02-09T23:21:59.895Z,7.00
2023-02-09T23:24:27.212Z,8.50
2023-02-09T23:26:54.276Z,8.30
2023-02-09T23:29:21.023Z,7.60
2023-02-09T23:31:47.628Z,8.40
2023-02-09T23:34:17.115Z,7.90
2023-02-09T23:36:43.865Z,7.90
2023-02-09T23:39:22.180Z,8.20
2023-02-09T23:41:48.572Z,7.30
2023-02-09T23:44:15.151Z,8.50
2023-02-09T23:46:41.810Z,8.50
2023-02-09T23:49:08.356Z,8.90
2023-02-09T23:51:35.189Z,9.70
2023-02-09T23:54:04.532Z,8.80
2023-02-09T23:56:36.049Z,8.20
2023-02-09T23:59:08.141Z,8.90
